St. Petersburg-Clearwater International Airport

Airport
ICAO code: 
KPIE
Summary
ICAO Region: 
NAM
Territory: 
Location: 
St. Petersburg, Florida,
Coordinates: 
Aerial View: 
27° 54' 32.936" N, 82° 41' 18.215" W
Metar
Observation
KPIE 021353Z 01006KT 10SM CLR 17/11 A3018 RMK AO2 SLP220 T01720111
Station
St. Petersburg / Clearwater, St. Petersburg / Clearwater International Airport
Date/Time
2021-12-02 13:53:00
Wind direction
10°
Wind speed
06 kts
Lowest cloud amount
n/a
Temperature
17.2°C
Dew point
11.1°C
Humidity
67%
Weather condition
n/a

Description

St. Petersburg–Clearwater International Airport is a public and military (USCG) use airport located in Pinellas County, Florida. It is 15 km north of the central business district of St. Petersburg and 11 km southeast of Clearwater.

Climatology

Humid “subtropical” climate (Köppen climate classification Cfa) - characterized by hot, humid summers and cool winters. Significant amounts of precipitation occur in all seasons in most areas.

Runways

Designator Length Width Surface Rops
17R/35L 1219 23 ASP Yes/Yes
9/27 1574 46 ASP Yes/Yes
4/22 1676 46 ASP Yes/Yes
17L/35R 2682 46 ASP Yes/Yes
Airport map: 
Aerial View: 

SKYbrary Partners:

Safety knowledge contributed by: